Del Rio International Airport Del Rio US
ICAO: KDRT
IATA: DRT
Category: Medium
Scheduled Services: No

Elevation: 1002 ft
TransAlt. 18000 ft.

Airport Communications:
APP:119.6
ASOS:118.525
CLNC DEL:120.5
DEP:119.6
SAN ANGELO RDO:122.3
CTAF/UNICOM:122.8

KDRT Zoom In..

Runways:

(A) RW 13 length 6300 ft width 100 ft
ILS 111.90 / hdg 132

(B) RW 31 length 6300 ft width 100 ft
---- / hdg 312

Location; KDRT
Day. 26 / Time. 11.42 Zulu
* Altimeter: 29.96
* Temperature: 22° c. 71.6°f.
* Wind from: 010° Speed 03 kn.
Dewpoint: 19° c.
Visibility: 10 Statute Miles.
Clouds: Scattered 1200 ft.
Clouds: Broken 1800 ft.
Clouds: Overcast 3800 ft.

KDRT 261142Z AUTO 01003KT 10SM SCT012 BKN018 OVC038 22/19 A2996 RMK AO2 T02170189


Wind From 010°
Speed 03 kn.

 
 
jpsmedia worldairports.se 2020   terms of use